createdAt,value
2022-12-26T00:00:27.785Z,66.49
2022-12-26T00:02:54.427Z,66.99
2022-12-26T00:05:21.158Z,67.96
2022-12-26T00:07:47.931Z,68.15
2022-12-26T00:10:14.541Z,66.68
2022-12-26T00:12:41.658Z,68.74
2022-12-26T00:15:08.853Z,67.32
2022-12-26T00:17:35.468Z,68.38
2022-12-26T00:20:02.357Z,69.54
2022-12-26T00:22:29.057Z,70.57
2022-12-26T00:24:55.729Z,70.55
2022-12-26T00:27:22.354Z,70.25
2022-12-26T00:29:49.084Z,71.29
2022-12-26T00:32:15.731Z,70.93
2022-12-26T00:34:42.394Z,71.03
2022-12-26T00:37:09.017Z,70.65
2022-12-26T00:39:35.496Z,70.69
2022-12-26T00:42:02.463Z,71.75
2022-12-26T00:44:29.084Z,71.86
2022-12-26T00:46:55.730Z,71.28
2022-12-26T00:49:22.424Z,70.73
2022-12-26T00:51:49.086Z,70.62
2022-12-26T00:54:15.579Z,70.45
2022-12-26T00:56:42.215Z,70.74
2022-12-26T00:59:08.813Z,70.56
2022-12-26T01:01:35.640Z,70.59
2022-12-26T01:04:02.353Z,70.76
2022-12-26T01:06:29.785Z,70.34
2022-12-26T01:08:56.570Z,70.10
2022-12-26T01:11:41.567Z,69.77
2022-12-26T01:14:11.580Z,69.66
2022-12-26T01:16:39.828Z,69.68
2022-12-26T01:19:07.014Z,69.65
2022-12-26T01:21:34.155Z,69.63
2022-12-26T01:24:01.018Z,68.89
2022-12-26T01:26:27.683Z,69.52
2022-12-26T01:28:54.889Z,69.17
2022-12-26T01:31:23.008Z,68.74
2022-12-26T01:33:50.563Z,69.02
2022-12-26T01:36:18.269Z,69.03
2022-12-26T01:38:45.379Z,68.74
2022-12-26T01:41:21.904Z,67.84
2022-12-26T01:43:55.115Z,68.42
2022-12-26T01:46:29.646Z,68.81
2022-12-26T01:49:06.469Z,68.32
2022-12-26T01:51:38.986Z,68.02
2022-12-26T01:54:39.246Z,67.57
2022-12-26T01:56:58.185Z,67.68
2022-12-26T01:59:28.812Z,67.45
2022-12-26T02:01:56.052Z,67.50
2022-12-26T02:04:51.398Z,67.56
2022-12-26T02:07:18.286Z,67.48
2022-12-26T02:09:44.994Z,67.87
2022-12-26T02:12:37.560Z,69.22
2022-12-26T02:15:03.969Z,68.41
2022-12-26T02:17:30.980Z,68.74
2022-12-26T02:20:33.343Z,67.66
2022-12-26T02:23:18.297Z,68.28
2022-12-26T02:26:06.365Z,67.20
2022-12-26T02:29:03.919Z,67.88
2022-12-26T02:31:42.061Z,67.48
2022-12-26T02:34:39.251Z,67.36
2022-12-26T02:37:30.549Z,67.78
2022-12-26T02:40:13.803Z,67.05
2022-12-26T02:43:02.768Z,67.15
2022-12-26T02:45:58.306Z,65.96
2022-12-26T02:48:28.188Z,66.61
2022-12-26T02:51:29.991Z,65.00
2022-12-26T02:54:21.476Z,65.23
2022-12-26T02:57:22.016Z,65.32
2022-12-26T03:00:16.381Z,66.14
2022-12-26T03:03:17.560Z,66.45
2022-12-26T03:06:09.470Z,66.76
2022-12-26T03:09:17.162Z,67.45
2022-12-26T03:12:08.811Z,67.71
2022-12-26T03:14:45.603Z,67.72
2022-12-26T03:17:21.847Z,66.36
2022-12-26T03:20:01.260Z,66.11
2022-12-26T03:22:48.426Z,65.83
2022-12-26T03:25:40.461Z,65.59
2022-12-26T03:28:07.347Z,65.50
2022-12-26T03:30:49.502Z,65.58
2022-12-26T03:33:46.311Z,66.48
2022-12-26T03:36:29.072Z,66.61
2022-12-26T03:39:45.426Z,66.64
2022-12-26T03:43:01.684Z,67.33
2022-12-26T03:46:07.222Z,67.24
2022-12-26T03:49:30.421Z,66.61
2022-12-26T03:52:22.529Z,67.03
2022-12-26T03:55:32.690Z,66.32
2022-12-26T03:58:27.664Z,66.72
2022-12-26T04:01:15.117Z,67.19
2022-12-26T04:04:03.023Z,67.22
2022-12-26T04:06:57.126Z,66.37
2022-12-26T04:09:53.577Z,65.97
2022-12-26T04:12:43.326Z,64.61
2022-12-26T04:15:46.920Z,64.69
2022-12-26T04:18:39.823Z,65.23
2022-12-26T04:21:32.368Z,64.80
2022-12-26T04:24:46.962Z,65.97
2022-12-26T04:27:35.777Z,65.48
2022-12-26T04:30:21.090Z,66.73
2022-12-26T04:33:09.037Z,66.63
2022-12-26T04:36:09.122Z,66.74
2022-12-26T04:39:02.458Z,66.81
2022-12-26T04:41:51.908Z,66.66
2022-12-26T04:44:23.174Z,66.95
2022-12-26T04:46:52.985Z,67.28
2022-12-26T04:49:38.865Z,66.72
2022-12-26T04:52:09.295Z,65.81
2022-12-26T04:54:36.035Z,66.57
2022-12-26T04:57:03.022Z,65.94
2022-12-26T04:59:29.675Z,65.59
2022-12-26T05:02:14.908Z,65.84
2022-12-26T05:05:00.397Z,66.44
2022-12-26T05:07:54.530Z,65.73
2022-12-26T05:10:27.248Z,65.82
2022-12-26T05:12:54.425Z,65.42
2022-12-26T05:15:21.735Z,64.93
2022-12-26T05:18:07.059Z,65.28
2022-12-26T05:20:39.729Z,64.47
2022-12-26T05:23:29.249Z,64.85
2022-12-26T05:26:14.450Z,64.90
2022-12-26T05:28:44.051Z,65.69
2022-12-26T05:31:16.236Z,65.41
2022-12-26T05:34:02.072Z,64.75
2022-12-26T05:36:42.065Z,64.89
2022-12-26T05:39:09.626Z,65.14
2022-12-26T05:41:37.695Z,64.32
2022-12-26T05:44:05.082Z,64.87
2022-12-26T05:46:31.846Z,64.50
2022-12-26T05:48:58.635Z,64.93
2022-12-26T05:51:25.739Z,64.44
2022-12-26T05:53:52.572Z,64.12
2022-12-26T05:56:20.314Z,64.20
2022-12-26T05:58:47.561Z,65.10
2022-12-26T06:01:15.502Z,64.54
2022-12-26T06:03:43.739Z,64.90
2022-12-26T06:06:11.041Z,64.42
2022-12-26T06:08:38.739Z,64.18
2022-12-26T06:11:06.659Z,63.83
2022-12-26T06:13:34.593Z,63.97
2022-12-26T06:16:09.230Z,63.25
2022-12-26T06:18:36.291Z,63.14
2022-12-26T06:21:21.708Z,63.49
2022-12-26T06:23:49.859Z,63.74
2022-12-26T06:26:17.796Z,63.56
2022-12-26T06:28:45.019Z,64.25
2022-12-26T06:31:18.489Z,64.16
2022-12-26T06:33:45.586Z,63.13
2022-12-26T06:36:14.843Z,63.75
2022-12-26T06:38:43.862Z,63.60
2022-12-26T06:41:13.429Z,63.36
2022-12-26T06:43:42.631Z,62.91
2022-12-26T06:46:13.231Z,63.26
2022-12-26T06:48:40.654Z,63.13
2022-12-26T06:51:11.623Z,62.83
2022-12-26T06:53:39.152Z,62.78
2022-12-26T06:56:14.161Z,62.77
2022-12-26T06:58:41.768Z,62.10
2022-12-26T07:01:11.573Z,62.99
2022-12-26T07:03:42.002Z,62.30
2022-12-26T07:06:24.104Z,63.11
2022-12-26T07:08:52.479Z,62.63
2022-12-26T07:11:22.680Z,62.65
2022-12-26T07:13:49.325Z,62.44
2022-12-26T07:16:15.982Z,61.96
2022-12-26T07:18:43.218Z,62.21
2022-12-26T07:21:13.327Z,62.33
2022-12-26T07:23:40.611Z,62.84
2022-12-26T07:26:07.923Z,62.13
2022-12-26T07:28:35.099Z,62.37
2022-12-26T07:31:02.507Z,62.38
2022-12-26T07:33:29.901Z,61.84
2022-12-26T07:36:01.367Z,61.79
2022-12-26T07:38:28.134Z,62.45
2022-12-26T07:40:56.480Z,62.27
2022-12-26T07:43:23.862Z,62.23
2022-12-26T07:45:51.147Z,62.84
2022-12-26T07:48:18.432Z,62.88
2022-12-26T07:50:50.071Z,62.14
2022-12-26T07:53:17.055Z,62.06
2022-12-26T07:55:43.757Z,62.24
2022-12-26T07:58:10.697Z,61.83
2022-12-26T08:00:37.535Z,62.01
2022-12-26T08:03:07.748Z,61.66
2022-12-26T08:05:35.101Z,61.76
2022-12-26T08:08:01.829Z,61.92
2022-12-26T08:10:28.589Z,61.52
2022-12-26T08:12:55.196Z,60.92
2022-12-26T08:15:21.843Z,61.51
2022-12-26T08:17:48.469Z,60.88
2022-12-26T08:20:15.172Z,61.04
2022-12-26T08:22:41.924Z,61.07
2022-12-26T08:25:09.314Z,61.36
2022-12-26T08:27:36.121Z,60.58
2022-12-26T08:30:03.351Z,60.74
2022-12-26T08:32:29.960Z,60.76
2022-12-26T08:34:57.099Z,61.18
2022-12-26T08:37:26.708Z,61.36
2022-12-26T08:39:53.651Z,60.93
2022-12-26T08:42:23.301Z,60.60
2022-12-26T08:44:49.981Z,60.35
2022-12-26T08:47:16.609Z,60.74
2022-12-26T08:49:43.685Z,60.74
2022-12-26T08:52:10.985Z,61.16
2022-12-26T08:54:38.243Z,61.63
2022-12-26T08:57:04.918Z,61.88
2022-12-26T08:59:31.568Z,61.82
2022-12-26T09:01:58.724Z,60.88
2022-12-26T09:04:25.423Z,60.96
2022-12-26T09:06:52.085Z,60.74
2022-12-26T09:09:18.831Z,60.96
2022-12-26T09:11:45.527Z,61.06
2022-12-26T09:14:12.538Z,61.17
2022-12-26T09:16:50.471Z,60.88
2022-12-26T09:19:18.988Z,61.93
2022-12-26T09:21:46.004Z,61.23
2022-12-26T09:24:14.938Z,61.55
2022-12-26T09:26:41.882Z,61.18
2022-12-26T09:29:11.762Z,60.58
2022-12-26T09:31:38.530Z,60.10
2022-12-26T09:34:06.579Z,60.48
2022-12-26T09:36:38.192Z,60.05
2022-12-26T09:39:05.901Z,60.45
2022-12-26T09:41:35.365Z,60.18
2022-12-26T09:44:23.534Z,60.02
2022-12-26T09:46:53.240Z,60.18
2022-12-26T09:49:37.500Z,59.91
2022-12-26T09:52:14.022Z,60.05
2022-12-26T09:54:44.913Z,58.88
2022-12-26T09:57:31.447Z,58.60
2022-12-26T10:00:01.649Z,58.51
2022-12-26T10:02:28.765Z,59.16
2022-12-26T10:04:55.810Z,59.35
2022-12-26T10:07:31.544Z,58.79
2022-12-26T10:10:13.428Z,58.51
2022-12-26T10:12:52.259Z,57.76
2022-12-26T10:15:40.968Z,58.08
2022-12-26T10:18:19.680Z,58.37
2022-12-26T10:21:10.073Z,58.66
2022-12-26T10:23:47.555Z,58.56
2022-12-26T10:26:20.263Z,58.59
2022-12-26T10:28:53.743Z,58.40
2022-12-26T10:31:47.423Z,59.26
2022-12-26T10:34:25.277Z,58.77
2022-12-26T10:37:24.326Z,59.33
2022-12-26T10:39:59.383Z,58.79
2022-12-26T10:42:46.504Z,58.25
2022-12-26T10:45:26.855Z,57.60
2022-12-26T10:47:54.761Z,58.52
2022-12-26T10:50:27.958Z,58.61
2022-12-26T10:52:55.966Z,58.51
2022-12-26T10:55:35.390Z,58.30
2022-12-26T10:58:34.312Z,58.40
2022-12-26T11:01:29.333Z,58.85
2022-12-26T11:03:58.449Z,58.22
2022-12-26T11:06:34.388Z,58.52
2022-12-26T11:09:01.271Z,58.45
2022-12-26T11:11:46.037Z,58.20
2022-12-26T11:14:45.451Z,57.78
2022-12-26T11:17:23.752Z,57.36
2022-12-26T11:20:08.578Z,58.27
2022-12-26T11:22:35.373Z,58.04
2022-12-26T11:25:07.995Z,58.68
2022-12-26T11:27:35.126Z,58.82
2022-12-26T11:30:14.049Z,58.72
2022-12-26T11:32:42.123Z,58.90
2022-12-26T11:35:28.382Z,59.11
2022-12-26T11:37:57.163Z,58.94
2022-12-26T11:41:06.470Z,57.86
2022-12-26T11:43:33.595Z,57.87
2022-12-26T11:46:00.293Z,57.19
2022-12-26T11:48:27.633Z,58.99
2022-12-26T11:50:54.711Z,57.66
2022-12-26T11:53:23.183Z,57.75
2022-12-26T11:56:05.270Z,60.58
2022-12-26T11:58:33.315Z,60.79
2022-12-26T12:00:59.871Z,61.57
2022-12-26T12:03:43.713Z,61.81
2022-12-26T12:06:25.779Z,61.99
2022-12-26T12:09:13.363Z,61.41
2022-12-26T12:11:45.921Z,61.56
2022-12-26T12:14:16.687Z,61.05
2022-12-26T12:16:46.192Z,62.06
2022-12-26T12:19:31.071Z,61.69
2022-12-26T12:21:57.679Z,61.41
2022-12-26T12:24:35.614Z,61.94
2022-12-26T12:27:11.622Z,62.14
2022-12-26T12:30:03.139Z,61.62
2022-12-26T12:32:53.476Z,61.72
2022-12-26T12:35:29.342Z,62.01
2022-12-26T12:38:32.859Z,62.10
2022-12-26T12:41:05.371Z,63.28
2022-12-26T12:43:42.105Z,64.40
2022-12-26T12:46:23.076Z,65.24
2022-12-26T12:49:25.062Z,65.56
2022-12-26T12:52:29.472Z,66.28
2022-12-26T12:55:24.061Z,66.50
2022-12-26T12:57:59.801Z,66.10
2022-12-26T13:00:31.140Z,67.25
2022-12-26T13:03:22.536Z,66.92
2022-12-26T13:05:59.817Z,66.80
2022-12-26T13:08:37.424Z,66.88
2022-12-26T13:11:10.934Z,66.76
2022-12-26T13:13:47.346Z,67.45
2022-12-26T13:16:24.292Z,67.99
2022-12-26T13:18:53.167Z,67.97
2022-12-26T13:21:22.058Z,67.54
2022-12-26T13:24:12.058Z,67.48
2022-12-26T13:26:43.661Z,66.90
2022-12-26T13:29:19.295Z,67.05
2022-12-26T13:31:46.971Z,66.95
2022-12-26T13:34:18.985Z,67.22
2022-12-26T13:36:48.413Z,67.84
2022-12-26T13:39:27.070Z,68.29
2022-12-26T13:42:35.653Z,67.23
2022-12-26T13:45:40.240Z,67.96
2022-12-26T13:48:16.304Z,67.63
2022-12-26T13:50:55.223Z,67.32
2022-12-26T13:53:25.366Z,66.69
2022-12-26T13:56:01.025Z,67.59
2022-12-26T13:58:34.569Z,68.28
2022-12-26T14:01:24.891Z,68.20
2022-12-26T14:04:02.615Z,67.71
2022-12-26T14:06:32.363Z,67.91
2022-12-26T14:09:06.460Z,68.11
2022-12-26T14:11:42.438Z,67.57
2022-12-26T14:14:37.182Z,67.15
2022-12-26T14:17:25.307Z,68.00
2022-12-26T14:20:23.440Z,68.08
2022-12-26T14:23:20.345Z,67.85
2022-12-26T14:26:13.104Z,67.86
2022-12-26T14:28:42.775Z,67.32
2022-12-26T14:31:22.188Z,67.34
2022-12-26T14:33:58.737Z,67.11
2022-12-26T14:36:40.668Z,66.95
2022-12-26T14:39:35.777Z,67.85
2022-12-26T14:42:27.225Z,67.42
2022-12-26T14:44:59.557Z,66.73
2022-12-26T14:47:38.530Z,67.67
2022-12-26T14:50:43.446Z,66.75
2022-12-26T14:53:28.551Z,67.38
2022-12-26T14:55:57.438Z,67.45
2022-12-26T14:58:48.625Z,66.72
2022-12-26T15:01:18.885Z,67.58
2022-12-26T15:04:19.027Z,67.07
2022-12-26T15:06:58.562Z,67.10
2022-12-26T15:10:02.741Z,67.81
2022-12-26T15:13:07.606Z,66.76
2022-12-26T15:15:47.667Z,67.76
2022-12-26T15:18:27.212Z,67.57
2022-12-26T15:20:59.931Z,67.56
2022-12-26T15:23:45.769Z,66.59
2022-12-26T15:26:24.614Z,67.26
2022-12-26T15:29:03.602Z,66.64
2022-12-26T15:31:46.483Z,65.90
2022-12-26T15:34:31.075Z,66.68
2022-12-26T15:37:06.645Z,67.52
2022-12-26T15:39:48.991Z,67.30
2022-12-26T15:42:31.325Z,67.58
2022-12-26T15:45:32.816Z,67.08
2022-12-26T15:48:12.558Z,66.69
2022-12-26T15:50:51.562Z,67.18
2022-12-26T15:53:29.454Z,67.20
2022-12-26T15:56:10.223Z,67.62
2022-12-26T15:58:45.530Z,67.61
2022-12-26T16:01:12.984Z,67.04
2022-12-26T16:03:56.732Z,66.80
2022-12-26T16:06:48.350Z,66.57
2022-12-26T16:09:28.050Z,66.72
2022-12-26T16:11:57.422Z,66.91
2022-12-26T16:14:31.953Z,66.98
2022-12-26T16:17:21.007Z,65.78
2022-12-26T16:19:50.691Z,66.22
2022-12-26T16:22:48.875Z,65.98
2022-12-26T16:25:22.253Z,65.97
2022-12-26T16:27:51.620Z,65.41
2022-12-26T16:30:23.815Z,64.74
2022-12-26T16:32:51.724Z,65.20
2022-12-26T16:35:20.383Z,64.91
2022-12-26T16:37:50.075Z,65.20
2022-12-26T16:40:30.765Z,65.12
2022-12-26T16:43:01.782Z,65.29
2022-12-26T16:45:32.169Z,66.08
2022-12-26T16:47:59.855Z,65.46
2022-12-26T16:50:29.321Z,65.99
2022-12-26T16:53:30.445Z,65.87
2022-12-26T16:56:14.460Z,65.84
2022-12-26T16:58:41.659Z,66.04
2022-12-26T17:01:12.374Z,65.76
2022-12-26T17:03:59.536Z,65.27
2022-12-26T17:06:33.120Z,64.25
2022-12-26T17:09:08.599Z,65.29
2022-12-26T17:11:39.936Z,65.80
2022-12-26T17:14:17.694Z,65.51
2022-12-26T17:16:44.739Z,65.17
2022-12-26T17:19:18.847Z,64.18
2022-12-26T17:22:22.895Z,64.86
2022-12-26T17:24:51.685Z,65.60
2022-12-26T17:27:23.411Z,65.61
2022-12-26T17:29:57.150Z,65.71
2022-12-26T17:32:35.265Z,65.05
2022-12-26T17:35:27.419Z,65.92
2022-12-26T17:38:01.354Z,66.18
2022-12-26T17:40:34.176Z,65.53
2022-12-26T17:43:12.881Z,65.53
2022-12-26T17:45:46.637Z,66.07
2022-12-26T17:48:14.473Z,66.19
2022-12-26T17:50:44.920Z,65.62
2022-12-26T17:53:31.536Z,66.21
2022-12-26T17:56:01.702Z,66.32
2022-12-26T17:58:29.613Z,66.61
2022-12-26T18:00:56.804Z,67.26
2022-12-26T18:03:23.530Z,66.05
2022-12-26T18:05:50.539Z,66.27
2022-12-26T18:08:29.142Z,66.46
2022-12-26T18:10:55.955Z,66.32
2022-12-26T18:13:22.636Z,66.41
2022-12-26T18:15:50.289Z,66.14
2022-12-26T18:18:41.355Z,66.44
2022-12-26T18:21:10.723Z,67.07
2022-12-26T18:23:37.708Z,66.60
2022-12-26T18:26:08.076Z,66.39
2022-12-26T18:28:35.698Z,66.86
2022-12-26T18:31:02.355Z,66.33
2022-12-26T18:33:29.083Z,65.68
2022-12-26T18:35:56.450Z,65.33
2022-12-26T18:38:23.148Z,65.06
2022-12-26T18:40:54.826Z,65.08
2022-12-26T18:43:21.565Z,65.27
2022-12-26T18:45:48.317Z,65.70
2022-12-26T18:48:16.636Z,64.77
2022-12-26T18:50:45.079Z,65.41
2022-12-26T18:53:12.587Z,65.83
2022-12-26T18:55:40.968Z,66.25
2022-12-26T18:58:07.795Z,65.44
2022-12-26T19:00:36.339Z,64.38
2022-12-26T19:03:03.275Z,65.39
